Terminal Aerodrome Forecast
Issued by NWS La Crosse, WI

Home | Current Version | Previous Version | Text Only | Print | Product List | Glossary On
Versions: 1 2 3 4 5 6 7 8 9 10 11 12 13 14 15 16 17 18 19 20 21 22 23 24 25 26 27 28 29 30
000
FTUS43 KARX 210726 AAC
TAFLSE
TAF AMD
KLSE 210726Z 2107/2206 25010KT P6SM OVC018
     FM210830 29008KT P6SM SKC
     FM211100 28005KT 3SM BR FEW004
     FM211500 20008KT P6SM SCT180=

USA.gov is the U.S. government's official web portal to all federal, state and local government web resources and services.